createdAt,value
2018-11-23T00:00:20.315Z,100404.48
2018-11-23T00:03:23.372Z,100402.47
2018-11-23T00:06:26.407Z,100397.36
2018-11-23T00:09:29.425Z,100398.59
2018-11-23T00:12:32.513Z,100394.42
2018-11-23T00:15:35.570Z,100398.34
2018-11-23T00:18:38.587Z,100395.05
2018-11-23T00:21:41.655Z,100396.53
2018-11-23T00:24:44.701Z,100395.02
2018-11-23T00:27:48.016Z,100392.50
2018-11-23T00:30:51.023Z,100389.93
2018-11-23T00:33:54.081Z,100390.98
2018-11-23T00:36:57.190Z,100401.36
2018-11-23T00:40:00.194Z,100396.45
2018-11-23T00:43:03.223Z,100402.88
2018-11-23T00:46:06.423Z,100399.22
2018-11-23T00:49:09.442Z,100393.72
2018-11-23T00:52:12.543Z,100398.34
2018-11-23T00:55:16.656Z,100399.52
2018-11-23T00:58:19.667Z,100400.11
2018-11-23T01:01:22.674Z,100398.34
2018-11-23T01:04:25.718Z,100399.43
2018-11-23T01:07:28.774Z,100394.09
2018-11-23T01:10:31.898Z,100395.09
2018-11-23T01:13:34.921Z,100395.09
2018-11-23T01:16:37.992Z,100390.39
2018-11-23T01:19:40.995Z,100395.02
2018-11-23T01:22:44.296Z,100392.03
2018-11-23T01:25:47.356Z,100388.77
2018-11-23T01:28:50.476Z,100398.84
2018-11-23T01:31:53.494Z,100399.98
2018-11-23T01:34:56.530Z,100402.87
2018-11-23T01:37:59.546Z,100398.34
2018-11-23T01:41:02.531Z,100394.94
2018-11-23T01:44:05.543Z,100396.81
2018-11-23T01:47:08.593Z,100400.48
2018-11-23T01:50:15.503Z,100400.55
2018-11-23T01:53:18.494Z,100392.83
2018-11-23T01:56:21.499Z,100401.58
2018-11-23T01:59:24.499Z,100393.97
2018-11-23T02:02:27.479Z,100398.77
2018-11-23T02:05:30.435Z,100401.58
2018-11-23T02:08:33.446Z,100409.49
2018-11-23T02:11:36.498Z,100403.48
2018-11-23T02:14:39.557Z,100398.12
2018-11-23T02:17:42.764Z,100400.73
2018-11-23T02:20:45.805Z,100408.93
2018-11-23T02:23:48.851Z,100397.11
2018-11-23T02:26:51.894Z,100406.89
2018-11-23T02:29:54.949Z,100400.52
2018-11-23T02:32:58.008Z,100401.55
2018-11-23T02:36:01.034Z,100408.42
2018-11-23T02:39:05.997Z,100406.80
2018-11-23T02:42:09.026Z,100412.89
2018-11-23T02:48:31.082Z,100407.87
2018-11-23T02:51:34.050Z,100407.16
2018-11-23T02:54:37.083Z,100404.56
2018-11-23T02:57:40.113Z,100405.91
2018-11-23T03:00:43.159Z,100405.34
2018-11-23T03:03:46.234Z,100397.77
2018-11-23T03:06:49.386Z,100399.82
2018-11-23T03:09:52.435Z,100399.54
2018-11-23T03:12:55.469Z,100398.70
2018-11-23T03:15:58.470Z,100393.50
2018-11-23T03:19:01.469Z,100386.72
2018-11-23T03:22:04.730Z,100383.50
2018-11-23T03:25:09.077Z,100386.76
2018-11-23T03:28:12.117Z,100380.34
2018-11-23T03:31:15.130Z,100382.81
2018-11-23T03:34:18.167Z,100376.38
2018-11-23T03:37:21.206Z,100371.14
2018-11-23T03:40:24.273Z,100367.23
2018-11-23T03:43:27.383Z,100364.95
2018-11-23T03:46:30.433Z,100370.67
2018-11-23T03:49:33.467Z,100362.77
2018-11-23T03:52:36.624Z,100367.09
2018-11-23T03:55:39.854Z,100365.23
2018-11-23T03:58:42.953Z,100363.83
2018-11-23T04:01:45.997Z,100366.86
2018-11-23T04:04:49.018Z,100359.75
2018-11-23T04:07:52.057Z,100360.72
2018-11-23T04:10:55.070Z,100358.39
2018-11-23T04:13:58.040Z,100365.31
2018-11-23T04:17:01.091Z,100362.06
2018-11-23T04:20:05.506Z,100363.13
2018-11-23T04:23:08.522Z,100364.34
2018-11-23T04:26:11.499Z,100363.36
2018-11-23T04:29:14.560Z,100360.20
2018-11-23T04:32:17.626Z,100360.11
2018-11-23T04:35:20.677Z,100359.56
2018-11-23T04:38:23.678Z,100354.12
2018-11-23T04:41:26.725Z,100353.69
2018-11-23T04:44:29.698Z,100353.14
2018-11-23T04:47:32.742Z,100357.83
2018-11-23T04:50:35.758Z,100360.67
2018-11-23T04:53:38.773Z,100357.88
2018-11-23T04:56:41.823Z,100349.75
2018-11-23T04:59:44.846Z,100345.98
2018-11-23T05:02:48.124Z,100345.70
2018-11-23T05:05:51.122Z,100339.94
2018-11-23T05:08:54.274Z,100342.40
2018-11-23T05:11:57.267Z,100337.01
2018-11-23T05:15:00.355Z,100340.83
2018-11-23T05:18:03.722Z,100338.91
2018-11-23T05:21:06.757Z,100337.06
2018-11-23T05:24:09.758Z,100331.61
2018-11-23T05:27:12.741Z,100343.75
2018-11-23T05:30:17.907Z,100342.03
2018-11-23T05:33:20.975Z,100346.97
2018-11-23T05:36:23.979Z,100343.27
2018-11-23T05:39:26.970Z,100345.45
2018-11-23T05:42:29.949Z,100346.72
2018-11-23T05:45:32.955Z,100337.73
2018-11-23T05:48:35.967Z,100337.64
2018-11-23T05:51:39.028Z,100338.98
2018-11-23T05:54:42.060Z,100337.16
2018-11-23T05:57:45.143Z,100335.37
2018-11-23T06:00:48.137Z,100326.34
2018-11-23T06:03:51.155Z,100322.81
2018-11-23T06:06:54.119Z,100320.37
2018-11-23T06:09:57.157Z,100319.14
2018-11-23T06:13:00.197Z,100324.59
2018-11-23T06:16:03.212Z,100318.55
2018-11-23T06:19:06.249Z,100327.34
2018-11-23T06:22:09.190Z,100331.72
2018-11-23T06:25:18.313Z,100326.88
2018-11-23T06:28:21.339Z,100326.20
2018-11-23T06:31:24.425Z,100329.86
2018-11-23T06:34:27.446Z,100324.92
2018-11-23T06:37:30.529Z,100329.95
2018-11-23T06:40:33.520Z,100329.29
2018-11-23T06:43:36.614Z,100323.91
2018-11-23T06:46:39.602Z,100326.31
2018-11-23T06:49:43.782Z,100321.95
2018-11-23T06:52:46.790Z,100322.80
2018-11-23T06:55:49.883Z,100319.86
2018-11-23T06:58:52.914Z,100324.18
2018-11-23T07:01:55.927Z,100322.37
2018-11-23T07:04:58.942Z,100313.59
2018-11-23T07:08:01.988Z,100311.21
2018-11-23T07:11:05.385Z,100316.28
2018-11-23T07:14:08.387Z,100321.49
2018-11-23T07:17:11.416Z,100324.31
2018-11-23T07:20:14.796Z,100323.39
2018-11-23T07:23:17.897Z,100322.93
2018-11-23T07:26:20.938Z,100321.07
2018-11-23T07:29:23.943Z,100319.77
2018-11-23T07:32:27.011Z,100330.73
2018-11-23T07:35:30.034Z,100339.33
2018-11-23T07:38:33.092Z,100346.50
2018-11-23T07:41:53.293Z,100346.31
2018-11-23T07:44:56.395Z,100340.87
2018-11-23T07:47:59.477Z,100349.37
2018-11-23T07:51:02.653Z,100355.09
2018-11-23T07:54:05.708Z,100350.49
2018-11-23T07:57:09.300Z,100357.52
2018-11-23T08:00:14.918Z,100356.63
2018-11-23T08:03:17.998Z,100360.77
2018-11-23T08:06:21.051Z,100352.58
2018-11-23T08:09:24.230Z,100355.94
2018-11-23T08:12:27.391Z,100351.38
2018-11-23T08:15:30.699Z,100347.86
2018-11-23T08:18:33.825Z,100334.23
2018-11-23T08:21:36.821Z,100336.34
2018-11-23T08:24:39.942Z,100338.70
2018-11-23T08:27:43.905Z,100339.41
2018-11-23T08:30:46.982Z,100333.31
2018-11-23T08:33:50.019Z,100330.93
2018-11-23T08:36:53.018Z,100327.48
2018-11-23T08:39:56.063Z,100322.98
2018-11-23T08:42:59.215Z,100324.84
2018-11-23T08:46:02.218Z,100331.34
2018-11-23T08:49:05.278Z,100327.19
2018-11-23T08:52:08.521Z,100332.82
2018-11-23T08:55:12.518Z,100323.62
2018-11-23T08:58:15.713Z,100329.54
2018-11-23T09:01:18.771Z,100328.23
2018-11-23T09:04:22.435Z,100333.77
2018-11-23T09:07:25.425Z,100327.91
2018-11-23T09:10:29.873Z,100318.39
2018-11-23T09:13:33.058Z,100326.59
2018-11-23T09:16:36.136Z,100328.06
2018-11-23T09:19:39.314Z,100321.63
2018-11-23T09:22:42.459Z,100321.96
2018-11-23T09:25:45.697Z,100320.28
2018-11-23T09:28:48.730Z,100309.84
2018-11-23T09:31:51.802Z,100313.07
2018-11-23T09:34:55.114Z,100324.03
2018-11-23T09:37:58.310Z,100319.37
2018-11-23T09:41:01.642Z,100330.56
2018-11-23T09:44:04.801Z,100328.06
2018-11-23T09:47:10.180Z,100327.27
2018-11-23T09:50:12.649Z,100327.56
2018-11-23T09:53:15.674Z,100325.61
2018-11-23T09:56:18.771Z,100313.88
2018-11-23T09:59:21.877Z,100322.16
2018-11-23T10:02:24.960Z,100317.86
2018-11-23T10:05:28.955Z,100319.73
2018-11-23T10:08:37.138Z,100329.08
2018-11-23T10:11:35.047Z,100318.57
2018-11-23T10:14:38.076Z,100313.89
2018-11-23T10:17:41.088Z,100309.45
2018-11-23T10:20:44.082Z,100299.76
2018-11-23T10:23:47.144Z,100305.07
2018-11-23T10:26:50.471Z,100301.31
2018-11-23T10:29:55.326Z,100299.23
2018-11-23T10:32:57.997Z,100294.09
2018-11-23T10:36:01.046Z,100283.59
2018-11-23T10:39:05.465Z,100283.20
2018-11-23T10:42:08.529Z,100281.97
2018-11-23T10:45:18.961Z,100271.55
2018-11-23T10:48:22.050Z,100269.36
2018-11-23T10:51:25.111Z,100272.51
2018-11-23T10:54:28.173Z,100260.78
2018-11-23T10:57:31.210Z,100262.62
2018-11-23T11:00:40.114Z,100253.49
2018-11-23T11:03:48.906Z,100249.15
2018-11-23T11:06:53.278Z,100250.05
2018-11-23T11:09:56.282Z,100244.45
2018-11-23T11:12:59.310Z,100237.91
2018-11-23T11:16:02.347Z,100233.59
2018-11-23T11:19:06.498Z,100224.94
2018-11-23T11:22:09.755Z,100219.70
2018-11-23T11:25:12.798Z,100212.73
2018-11-23T11:28:15.806Z,100216.95
2018-11-23T11:31:18.811Z,100214.70
2018-11-23T11:34:21.866Z,100207.35
2018-11-23T11:37:24.946Z,100206.91
2018-11-23T11:40:27.959Z,100195.13
2018-11-23T11:43:31.048Z,100196.48
2018-11-23T11:46:34.067Z,100193.47
2018-11-23T11:49:37.123Z,100191.78
2018-11-23T11:52:41.331Z,100183.99
2018-11-23T11:55:44.373Z,100178.80
2018-11-23T11:58:47.462Z,100168.02
2018-11-23T12:01:50.530Z,100165.08
2018-11-23T12:04:53.582Z,100163.78
2018-11-23T12:07:56.626Z,100159.52
2018-11-23T12:10:59.657Z,100160.83
2018-11-23T12:14:02.729Z,100147.70
2018-11-23T12:17:06.042Z,100159.11
2018-11-23T12:20:12.542Z,100143.13
2018-11-23T12:23:15.540Z,100142.34
2018-11-23T12:26:18.511Z,100135.47
2018-11-23T12:29:21.557Z,100151.85
2018-11-23T12:32:24.602Z,100141.83
2018-11-23T12:35:28.282Z,100137.54
2018-11-23T12:38:32.114Z,100133.16
2018-11-23T12:41:35.425Z,100138.80
2018-11-23T12:44:39.859Z,100139.66
2018-11-23T12:47:42.572Z,100141.39
2018-11-23T12:50:46.117Z,100129.14
2018-11-23T12:53:49.910Z,100130.44
2018-11-23T12:56:53.482Z,100126.08
2018-11-23T12:59:56.638Z,100127.39
2018-11-23T13:03:02.451Z,100120.41
2018-11-23T13:06:05.800Z,100110.41
2018-11-23T13:09:09.293Z,100112.56
2018-11-23T13:12:12.513Z,100103.88
2018-11-23T13:15:15.589Z,100103.42
2018-11-23T13:18:18.598Z,100100.36
2018-11-23T13:21:21.606Z,100094.70
2018-11-23T13:24:24.602Z,100080.63
2018-11-23T13:27:27.627Z,100089.41
2018-11-23T13:30:33.220Z,100088.14
2018-11-23T13:33:36.246Z,100088.55
2018-11-23T13:36:39.274Z,100086.38
2018-11-23T13:39:42.686Z,100087.22
2018-11-23T13:42:46.187Z,100091.15
2018-11-23T13:45:49.247Z,100084.13
2018-11-23T13:48:52.288Z,100086.34
2018-11-23T13:51:55.281Z,100079.83
2018-11-23T13:54:58.352Z,100074.13
2018-11-23T13:58:01.421Z,100076.77
2018-11-23T14:01:04.775Z,100073.27
2018-11-23T14:04:07.805Z,100068.44
2018-11-23T14:07:10.845Z,100070.17
2018-11-23T14:10:15.141Z,100064.07
2018-11-23T14:37:56.446Z,100043.04
2018-11-23T14:40:59.472Z,100040.84
2018-11-23T14:44:06.831Z,100037.77
2018-11-23T14:47:05.773Z,100032.06
2018-11-23T14:50:13.064Z,100031.59
2018-11-23T14:53:16.114Z,100028.05
2018-11-23T14:56:19.127Z,100023.27
2018-11-23T14:59:22.160Z,100021.92
2018-11-23T15:02:25.195Z,100024.08
2018-11-23T15:05:28.247Z,100028.42
2018-11-23T15:08:31.265Z,100022.69
2018-11-23T15:11:34.341Z,100024.89
2018-11-23T15:14:37.368Z,100019.71
2018-11-23T15:17:40.834Z,100019.64
2018-11-23T15:20:45.473Z,100018.28
2018-11-23T15:23:48.514Z,100014.75
2018-11-23T15:26:51.515Z,100016.94
2018-11-23T15:29:54.514Z,100023.43
2018-11-23T15:32:57.831Z,100025.95
2018-11-23T15:36:00.854Z,100025.57
2018-11-23T15:39:07.766Z,100020.71
2018-11-23T15:42:10.826Z,100019.39
2018-11-23T15:45:17.762Z,100012.03
2018-11-23T15:48:20.795Z,100016.73
2018-11-23T15:51:23.771Z,100017.55
2018-11-23T15:54:26.806Z,100017.09
2018-11-23T15:57:29.909Z,100019.20
2018-11-23T16:00:34.365Z,100021.36
2018-11-23T16:03:37.462Z,100013.52
2018-11-23T16:06:40.459Z,100006.57
2018-11-23T16:09:43.434Z,100005.73
2018-11-23T16:12:47.790Z,100006.16
2018-11-23T16:15:50.887Z,100004.86
2018-11-23T16:18:53.966Z,100003.97
2018-11-23T16:21:56.982Z,99997.06
2018-11-23T16:25:00.029Z,99993.10
2018-11-23T16:28:04.526Z,99995.59
2018-11-23T16:31:07.575Z,99992.89
2018-11-23T16:34:10.555Z,99988.98
2018-11-23T16:37:13.700Z,99988.08
2018-11-23T16:40:18.428Z,99991.58
2018-11-23T16:43:21.473Z,99992.86
2018-11-23T16:46:24.486Z,99998.53
2018-11-23T16:49:27.486Z,99993.31
2018-11-23T16:52:30.526Z,99992.00
2018-11-23T16:55:33.677Z,99983.23
2018-11-23T16:58:36.795Z,99984.54
2018-11-23T17:01:39.882Z,99984.92
2018-11-23T17:04:42.937Z,99986.25
2018-11-23T17:07:46.037Z,99982.31
2018-11-23T17:10:49.142Z,99981.44
2018-11-23T17:13:52.194Z,99982.86
2018-11-23T17:16:55.215Z,99972.41
2018-11-23T17:19:58.218Z,99967.58
2018-11-23T17:23:02.317Z,99972.33
2018-11-23T17:26:05.374Z,99970.63
2018-11-23T17:29:08.461Z,99965.79
2018-11-23T17:32:11.478Z,99961.42
2018-11-23T17:35:14.552Z,99961.41
2018-11-23T17:38:17.605Z,99963.56
2018-11-23T17:41:20.651Z,99962.31
2018-11-23T17:44:23.682Z,99962.32
2018-11-23T17:47:27.011Z,99964.50
2018-11-23T17:50:31.362Z,99964.92
2018-11-23T17:53:34.375Z,99967.45
2018-11-23T17:56:37.437Z,99966.62
2018-11-23T17:59:46.313Z,99959.15
2018-11-23T18:02:50.106Z,99964.28
2018-11-23T18:05:53.122Z,99961.67
2018-11-23T18:08:56.156Z,99958.98
2018-11-23T18:11:59.193Z,99960.80
2018-11-23T18:15:02.210Z,99951.67
2018-11-23T18:18:06.250Z,99950.34
2018-11-23T18:21:09.287Z,99945.58
2018-11-23T18:24:12.307Z,99942.95
2018-11-23T18:27:16.077Z,99942.91
2018-11-23T18:30:19.202Z,99935.95
2018-11-23T18:33:22.266Z,99927.70
2018-11-23T18:36:25.346Z,99922.13
2018-11-23T18:39:28.376Z,99924.18
2018-11-23T18:42:31.475Z,99916.33
2018-11-23T18:45:44.119Z,99907.69
2018-11-23T18:48:47.686Z,99905.02
2018-11-23T18:51:50.694Z,99902.39
2018-11-23T18:54:53.693Z,99901.98
2018-11-23T18:57:56.731Z,99894.99
2018-11-23T19:00:59.715Z,99890.70
2018-11-23T19:04:02.762Z,99885.45
2018-11-23T19:07:08.638Z,99874.58
2018-11-23T19:10:11.639Z,99886.02
2018-11-23T19:13:15.181Z,99880.84
2018-11-23T19:16:20.816Z,99872.49
2018-11-23T19:19:24.003Z,99870.81
2018-11-23T19:22:27.864Z,99871.27
2018-11-23T19:25:30.955Z,99871.64
2018-11-23T19:28:34.343Z,99867.78
2018-11-23T19:31:37.465Z,99871.30
2018-11-23T19:34:41.197Z,99870.45
2018-11-23T19:37:44.461Z,99860.77
2018-11-23T19:40:47.907Z,99863.34
2018-11-23T19:43:51.123Z,99864.20
2018-11-23T19:46:54.686Z,99865.97
2018-11-23T19:49:57.830Z,99855.51
2018-11-23T19:53:00.847Z,99865.83
2018-11-23T19:56:04.232Z,99858.97
2018-11-23T19:59:07.470Z,99848.68
2018-11-23T20:02:11.303Z,99846.88
2018-11-23T20:05:14.386Z,99834.34
2018-11-23T20:08:17.444Z,99845.75
2018-11-23T20:11:20.541Z,99834.86
2018-11-23T20:14:24.895Z,99848.58
2018-11-23T20:17:28.558Z,99841.16
2018-11-23T20:20:32.158Z,99840.33
2018-11-23T20:23:35.478Z,99841.20
2018-11-23T20:26:38.604Z,99834.13
2018-11-23T20:29:41.818Z,99830.31
2018-11-23T20:32:45.301Z,99830.72
2018-11-23T20:35:48.787Z,99825.72
2018-11-23T20:38:52.534Z,99821.91
2018-11-23T20:41:55.893Z,99824.52
2018-11-23T20:44:59.184Z,99827.10
2018-11-23T20:48:02.376Z,99826.29
2018-11-23T20:51:05.659Z,99825.75
2018-11-23T20:54:09.598Z,99823.22
2018-11-23T20:57:13.593Z,99812.39
2018-11-23T21:00:19.028Z,99814.55
2018-11-23T21:03:22.463Z,99805.37
2018-11-23T21:06:26.494Z,99805.27
2018-11-23T21:09:31.203Z,99803.53
2018-11-23T21:12:33.656Z,99792.63
2018-11-23T21:15:36.964Z,99792.75
2018-11-23T21:18:40.173Z,99790.59
2018-11-23T21:21:43.383Z,99780.94
2018-11-23T21:24:46.740Z,99782.13
2018-11-23T21:27:51.061Z,99786.58
2018-11-23T21:30:54.363Z,99789.28
2018-11-23T21:33:57.656Z,99778.36
2018-11-23T21:37:01.246Z,99780.16
2018-11-23T21:40:09.686Z,99780.23
2018-11-23T21:43:13.010Z,99774.97
2018-11-23T21:46:16.566Z,99772.34
2018-11-23T21:49:19.950Z,99765.47
2018-11-23T21:52:23.356Z,99758.88
2018-11-23T21:55:26.763Z,99761.27
2018-11-23T21:58:30.529Z,99754.73
2018-11-23T22:01:33.841Z,99752.04
2018-11-23T22:04:37.265Z,99754.93
2018-11-23T22:07:40.921Z,99754.41
2018-11-23T22:10:44.746Z,99747.91
2018-11-23T22:13:48.310Z,99754.38
2018-11-23T22:16:51.870Z,99747.45
2018-11-23T22:19:55.055Z,99737.43
2018-11-23T22:22:58.551Z,99734.30
2018-11-23T22:26:01.954Z,99735.17
2018-11-23T22:29:06.606Z,99733.80
2018-11-23T22:32:10.379Z,99730.08
2018-11-23T22:35:13.665Z,99733.58
2018-11-23T22:38:16.737Z,99730.53
2018-11-23T22:41:19.790Z,99728.86
2018-11-23T22:44:22.822Z,99726.14
2018-11-23T22:47:25.896Z,99723.55
2018-11-23T22:50:28.961Z,99722.12
2018-11-23T22:53:32.029Z,99712.96
2018-11-23T22:56:35.038Z,99705.25
2018-11-23T22:59:38.155Z,99716.09
2018-11-23T23:02:41.174Z,99699.92
2018-11-23T23:05:44.249Z,99697.30
2018-11-23T23:08:47.318Z,99701.70
2018-11-23T23:11:50.365Z,99694.33
2018-11-23T23:14:53.412Z,99693.00
2018-11-23T23:17:56.442Z,99688.23
2018-11-23T23:20:59.483Z,99686.91
2018-11-23T23:24:02.506Z,99687.38
2018-11-23T23:27:05.584Z,99685.62
2018-11-23T23:30:12.098Z,99675.66
2018-11-23T23:33:15.115Z,99671.81
2018-11-23T23:36:18.137Z,99671.33
2018-11-23T23:39:21.205Z,99676.55
2018-11-23T23:42:25.680Z,99666.88
2018-11-23T23:45:28.774Z,99664.17
2018-11-23T23:48:31.755Z,99661.54
2018-11-23T23:51:34.817Z,99663.69
2018-11-23T23:54:37.825Z,99659.30
2018-11-23T23:57:43.200Z,99643.77
